Time;durP1;ratioP1;P1;durP2;ratioP2;P2;SDS_P1;SDS_P2;PMS_P1;PMS_P2;Temp;Humidity;BMP_temperature;BMP_pressure;BME280_temperature;BME280_humidity;BME280_pressure;Samples;Min_cycle;Max_cycle;Signal;HPM_P1;HPM_P2
2022/04/20 00:00:06;;;;;;;4.83;3.77;;;13.60;94.00;;;;;;5035695;28;20243;-78
2022/04/20 00:02:32;;;;;;;7.27;3.83;;;13.50;93.90;;;;;;5035833;28;20213;-78
2022/04/20 00:05:00;;;;;;;3.90;3.53;;;13.40;93.90;;;;;;5035564;28;20216;-80
2022/04/20 00:07:27;;;;;;;4.77;3.70;;;13.40;94.10;;;;;;5035638;28;20206;-81
2022/04/20 00:09:55;;;;;;;4.33;4.03;;;13.50;94.00;;;;;;5035262;28;20219;-80
2022/04/20 00:12:23;;;;;;;4.37;4.00;;;13.50;94.00;;;;;;5036135;28;20204;-80
2022/04/20 00:14:50;;;;;;;4.60;4.13;;;13.40;94.10;;;;;;5035712;28;20215;-80
2022/04/20 00:17:17;;;;;;;5.53;4.00;;;13.40;94.20;;;;;;5035498;28;20240;-79
2022/04/20 00:19:44;;;;;;;7.63;4.10;;;13.40;94.20;;;;;;5035378;28;20209;-79
2022/04/20 00:22:12;;;;;;;3.80;3.50;;;13.30;94.30;;;;;;5035654;28;20709;-80
2022/04/20 00:24:39;;;;;;;5.07;3.77;;;13.30;94.30;;;;;;5035346;28;20208;-79
2022/04/20 00:27:06;;;;;;;6.37;3.60;;;13.20;94.50;;;;;;5035183;28;20284;-79
2022/04/20 00:29:36;;;;;;;4.40;3.60;;;13.00;94.30;;;;;;5035449;28;20198;-79
2022/04/20 00:32:03;;;;;;;4.47;4.07;;;12.90;94.70;;;;;;5035324;28;20218;-80
2022/04/20 00:34:30;;;;;;;8.48;4.20;;;13.00;94.70;;;;;;5035122;28;20389;-79
2022/04/20 00:36:56;;;;;;;4.20;3.83;;;13.10;94.60;;;;;;5035022;28;20227;-80
2022/04/20 00:39:24;;;;;;;5.03;4.27;;;13.00;94.50;;;;;;5034935;28;20215;-80
2022/04/20 00:41:52;;;;;;;5.27;4.10;;;12.80;94.60;;;;;;5034961;28;20220;-81
2022/04/20 00:44:20;;;;;;;6.07;4.23;;;12.90;95.00;;;;;;5035091;28;20593;-80
2022/04/20 00:46:48;;;;;;;6.03;4.20;;;12.90;94.70;;;;;;5034878;28;20199;-81
2022/04/20 00:49:15;;;;;;;4.80;3.90;;;12.90;94.70;;;;;;5034783;28;20194;-80
2022/04/20 00:51:52;;;;;;;4.00;3.70;;;13.20;94.60;;;;;;5034875;28;20193;-79
2022/04/20 00:54:19;;;;;;;4.75;4.30;;;12.80;94.70;;;;;;5034876;28;20435;-80
2022/04/20 00:56:47;;;;;;;8.50;4.53;;;12.60;94.90;;;;;;5034631;28;20224;-80
2022/04/20 00:59:15;;;;;;;5.80;4.40;;;12.50;95.10;;;;;;5042510;28;20222;-80
2022/04/20 01:01:42;;;;;;;4.40;4.10;;;12.60;95.20;;;;;;5051963;28;20226;-80
2022/04/20 01:04:10;;;;;;;5.17;4.27;;;12.60;95.10;;;;;;5054329;28;20225;-79
2022/04/20 01:06:37;;;;;;;4.40;4.10;;;12.60;95.20;;;;;;5052680;28;20601;-80
2022/04/20 01:09:04;;;;;;;5.00;4.17;;;12.50;95.10;;;;;;5054051;28;20206;-81
2022/04/20 01:11:32;;;;;;;8.70;3.90;;;12.40;95.20;;;;;;5054583;28;20211;-81
2022/04/20 01:14:00;;;;;;;4.30;3.90;;;12.30;95.30;;;;;;5054709;28;20207;-80
2022/04/20 01:16:27;;;;;;;8.17;3.80;;;12.40;95.40;;;;;;5054105;28;20203;-81
2022/04/20 01:18:54;;;;;;;4.20;3.80;;;12.20;95.30;;;;;;5053973;28;20662;-81
2022/04/20 01:21:23;;;;;;;7.83;4.10;;;12.30;95.50;;;;;;5054040;28;20190;-81
2022/04/20 01:23:50;;;;;;;6.10;3.47;;;12.10;95.50;;;;;;5054207;28;20198;-81
2022/04/20 01:26:17;;;;;;;6.40;3.53;;;12.20;95.60;;;;;;5054443;28;20202;-81
2022/04/20 01:28:46;;;;;;;3.87;3.33;;;12.20;95.50;;;;;;5054604;28;20198;-80
2022/04/20 01:31:14;;;;;;;3.43;3.13;;;12.20;95.50;;;;;;5054143;28;20201;-80
2022/04/20 01:33:41;;;;;;;4.07;3.17;;;11.90;95.50;;;;;;5054608;28;20190;-81
2022/04/20 01:36:11;;;;;;;4.57;3.70;;;11.90;95.50;;;;;;5052929;28;20433;-81
2022/04/20 01:38:41;;;;;;;4.13;3.33;;;12.00;95.80;;;;;;5054024;28;20273;-80
2022/04/20 01:41:09;;;;;;;4.80;3.63;;;11.80;95.90;;;;;;5053798;28;20206;-80
2022/04/20 01:43:36;;;;;;;3.50;3.20;;;11.80;95.90;;;;;;5053826;28;20203;-82
2022/04/20 01:46:04;;;;;;;6.40;4.00;;;11.90;95.80;;;;;;5054118;28;20213;-82
2022/04/20 01:48:30;;;;;;;4.07;3.67;;;11.90;95.70;;;;;;5053593;28;20207;-82
2022/04/20 01:53:43;;;;;;;4.50;3.27;;;11.90;95.90;;;;;;5053859;28;20685;-82
2022/04/20 01:56:10;;;;;;;3.47;3.13;;;11.80;96.00;;;;;;5053512;28;20206;-82
2022/04/20 01:58:37;;;;;;;3.60;3.30;;;11.80;95.90;;;;;;5053827;28;20237;-81
2022/04/20 02:02:34;;;;;;;4.23;3.83;;;11.80;95.90;;;;;;5053410;28;20231;-82
2022/04/20 02:03:49;;;;;;;3.70;3.40;;;11.80;96.10;;;;;;5053457;28;20214;-81
2022/04/20 02:06:16;;;;;;;3.47;3.27;;;11.70;96.50;;;;;;5053050;28;20221;-81
2022/04/20 02:08:45;;;;;;;3.80;3.47;;;11.80;96.20;;;;;;5053337;28;20233;-82
2022/04/20 02:11:12;;;;;;;3.90;3.57;;;11.70;96.20;;;;;;5053117;28;20209;-81
2022/04/20 02:13:39;;;;;;;4.73;3.80;;;11.70;96.70;;;;;;5053760;28;20190;-82
2022/04/20 02:16:07;;;;;;;4.10;3.80;;;11.70;96.30;;;;;;5053551;28;20209;-82
2022/04/20 02:18:34;;;;;;;3.63;3.33;;;11.70;96.40;;;;;;5052439;28;20232;-83
2022/04/20 02:21:00;;;;;;;3.70;3.40;;;11.60;96.50;;;;;;5053367;28;20207;-83
2022/04/20 02:23:27;;;;;;;4.30;3.40;;;11.50;96.80;;;;;;5053541;28;20214;-82
2022/04/20 02:25:55;;;;;;;6.13;3.80;;;11.60;96.80;;;;;;5053409;28;20231;-82
2022/04/20 02:28:22;;;;;;;3.43;3.23;;;11.60;97.10;;;;;;5053546;28;20202;-82
2022/04/20 02:30:49;;;;;;;5.87;3.70;;;11.60;97.00;;;;;;5053134;28;20205;-82
2022/04/20 02:33:16;;;;;;;3.90;3.33;;;11.40;97.00;;;;;;5052698;28;20666;-81
2022/04/20 02:35:43;;;;;;;4.43;3.73;;;11.20;97.50;;;;;;5052968;28;20210;-82
2022/04/20 02:38:14;;;;;;;5.67;3.33;;;11.20;97.60;;;;;;5053113;28;20238;-81
2022/04/20 02:40:42;;;;;;;4.50;3.40;;;11.10;97.80;;;;;;5053304;28;20210;-81
2022/04/20 02:43:11;;;;;;;5.63;3.83;;;11.10;97.90;;;;;;5053528;28;20234;-82
2022/04/20 02:45:38;;;;;;;8.77;3.33;;;11.00;98.20;;;;;;5053225;28;20207;-83
2022/04/20 02:48:05;;;;;;;3.73;3.43;;;11.00;98.20;;;;;;5052868;28;20233;-82
2022/04/20 02:50:32;;;;;;;5.13;3.50;;;11.10;98.10;;;;;;5053069;28;20213;-83
2022/04/20 02:52:59;;;;;;;4.63;3.70;;;11.10;98.20;;;;;;5052969;28;20202;-82
2022/04/20 02:55:26;;;;;;;4.00;3.70;;;11.10;98.30;;;;;;5053032;28;20213;-83
2022/04/20 02:57:54;;;;;;;4.40;4.10;;;11.00;98.20;;;;;;5053011;28;20222;-83
2022/04/20 03:00:23;;;;;;;7.40;3.97;;;11.00;98.40;;;;;;5051848;28;20434;-83
2022/04/20 03:02:49;;;;;;;5.30;3.73;;;11.00;98.50;;;;;;5052404;28;20693;-83
2022/04/20 03:05:18;;;;;;;3.43;3.20;;;10.80;98.60;;;;;;5058926;28;20214;-81
2022/04/20 03:07:45;;;;;;;6.57;3.67;;;10.90;98.50;;;;;;5057077;28;20199;-81
2022/04/20 03:10:13;;;;;;;3.83;3.53;;;10.80;98.70;;;;;;5058158;28;20206;-80
2022/04/20 03:12:39;;;;;;;3.70;3.27;;;10.90;98.60;;;;;;5064362;28;20205;-81
2022/04/20 03:15:07;;;;;;;4.93;3.43;;;10.80;98.80;;;;;;5062192;28;20209;-81
2022/04/20 03:17:36;;;;;;;3.43;3.13;;;10.80;99.00;;;;;;5064321;28;20226;-81
2022/04/20 03:20:03;;;;;;;4.70;3.07;;;10.80;99.00;;;;;;5053734;28;20204;-81
2022/04/20 03:22:29;;;;;;;5.35;4.13;;;10.80;99.00;;;;;;5051984;28;20422;-83
2022/04/20 03:24:56;;;;;;;4.33;3.80;;;11.00;98.90;;;;;;5054376;28;20202;-83
2022/04/20 03:27:23;;;;;;;3.90;3.50;;;10.80;98.90;;;;;;5054903;28;20202;-84
2022/04/20 03:29:50;;;;;;;9.60;3.97;;;10.70;99.10;;;;;;5055791;28;20285;-83
2022/04/20 03:32:17;;;;;;;6.57;4.00;;;10.60;99.50;;;;;;5058474;28;20204;-83
2022/04/20 03:34:45;;;;;;;7.60;4.10;;;10.60;99.60;;;;;;5057632;28;20280;-83
2022/04/20 03:37:12;;;;;;;5.50;4.10;;;10.60;99.50;;;;;;5054660;28;20198;-82
2022/04/20 03:39:40;;;;;;;4.53;4.17;;;10.70;99.40;;;;;;5056244;28;20210;-83
2022/04/20 03:42:08;;;;;;;4.37;3.97;;;10.70;99.50;;;;;;5057004;28;20205;-83
2022/04/20 03:44:35;;;;;;;4.28;3.92;;;10.70;99.50;;;;;;5057581;28;20465;-83
2022/04/20 03:47:02;;;;;;;5.53;3.70;;;10.80;99.70;;;;;;5058192;28;20198;-82
2022/04/20 03:49:29;;;;;;;6.40;4.37;;;10.60;99.80;;;;;;5056026;28;20591;-82
2022/04/20 03:51:57;;;;;;;4.30;3.90;;;10.70;99.90;;;;;;5056969;28;20212;-82
2022/04/20 03:54:24;;;;;;;4.23;3.67;;;10.80;99.90;;;;;;5056748;28;20229;-83
2022/04/20 03:57:07;;;;;;;4.00;3.57;;;10.70;99.90;;;;;;5056059;28;20218;-83
2022/04/20 03:59:36;;;;;;;5.03;3.30;;;10.70;99.90;;;;;;5055784;28;20229;-82
2022/04/20 04:02:03;;;;;;;5.27;3.53;;;10.60;99.90;;;;;;5055601;28;20253;-83
2022/04/20 04:04:30;;;;;;;4.10;3.67;;;10.60;99.90;;;;;;5056142;28;20216;-83
2022/04/20 04:06:58;;;;;;;3.93;3.50;;;10.70;99.90;;;;;;5055751;28;20202;-82
2022/04/20 04:09:25;;;;;;;4.10;3.70;;;10.70;99.90;;;;;;5055640;28;20199;-82
2022/04/20 04:11:52;;;;;;;5.00;3.53;;;10.70;99.90;;;;;;5055947;28;20206;-82
2022/04/20 04:14:19;;;;;;;5.20;3.80;;;10.70;99.90;;;;;;5055076;28;20603;-82
2022/04/20 04:16:46;;;;;;;4.00;3.67;;;10.70;99.90;;;;;;5055615;28;20202;-83
2022/04/20 04:19:12;;;;;;;5.17;3.53;;;10.60;99.90;;;;;;5055334;28;20229;-82
2022/04/20 04:21:39;;;;;;;4.93;3.93;;;10.40;99.90;;;;;;5055596;28;20286;-81
2022/04/20 04:24:34;;;;;;;5.07;4.57;;;10.40;99.90;;;;;;5055287;28;20661;-83
2022/04/20 04:26:57;;;;;;;8.43;3.77;;;10.50;99.90;;;;;;5055409;28;20206;-82
2022/04/20 04:29:25;;;;;;;4.72;4.32;;;10.40;99.90;;;;;;5054078;28;20433;-82
2022/04/20 04:31:52;;;;;;;8.83;3.90;;;10.50;99.90;;;;;;5055158;28;20202;-83
2022/04/20 04:34:19;;;;;;;6.53;3.90;;;10.40;99.90;;;;;;5055193;28;20218;-82
2022/04/20 04:36:45;;;;;;;7.33;4.03;;;10.30;99.90;;;;;;5055731;28;20202;-83
2022/04/20 04:39:17;;;;;;;8.10;3.80;;;10.40;99.90;;;;;;5054949;28;20233;-83
2022/04/20 04:41:46;;;;;;;4.67;3.83;;;10.20;99.90;;;;;;5054413;28;20210;-83
2022/04/20 04:44:13;;;;;;;4.50;4.10;;;10.30;99.90;;;;;;5054585;28;20563;-83
2022/04/20 04:49:24;;;;;;;6.57;4.23;;;10.00;99.90;;;;;;5053812;28;20201;-82
2022/04/20 04:51:50;;;;;;;4.67;4.27;;;10.10;99.90;;;;;;5054985;28;20658;-83
2022/04/20 04:54:19;;;;;;;4.30;3.90;;;10.10;99.90;;;;;;5055381;28;20209;-83
2022/04/20 04:56:45;;;;;;;5.10;4.00;;;10.20;99.90;;;;;;5054952;28;20666;-83
2022/04/20 04:59:12;;;;;;;4.67;4.07;;;10.30;99.90;;;;;;5054933;28;20234;-84
2022/04/20 05:01:39;;;;;;;4.30;3.90;;;10.30;99.90;;;;;;5044914;28;20227;-83
2022/04/20 05:04:06;;;;;;;5.53;3.70;;;10.10;99.90;;;;;;5040784;28;20214;-83
2022/04/20 05:06:33;;;;;;;4.17;3.67;;;10.20;99.90;;;;;;5044849;28;20207;-84
2022/04/20 05:08:59;;;;;;;3.90;3.60;;;10.30;99.90;;;;;;5053421;28;20657;-83
2022/04/20 05:11:27;;;;;;;5.77;3.80;;;10.10;99.90;;;;;;5052643;28;20224;-82
2022/04/20 05:13:55;;;;;;;7.20;3.50;;;10.10;99.90;;;;;;5054324;28;20213;-82
2022/04/20 05:16:23;;;;;;;4.07;3.67;;;10.10;99.90;;;;;;5053351;28;20202;-83
2022/04/20 05:18:51;;;;;;;5.27;3.43;;;10.20;99.90;;;;;;5054431;28;20705;-82
2022/04/20 05:21:18;;;;;;;6.93;3.37;;;10.20;99.90;;;;;;5054129;28;20203;-83
2022/04/20 05:23:44;;;;;;;5.00;3.40;;;10.30;99.90;;;;;;5054661;28;20305;-83
2022/04/20 05:26:11;;;;;;;5.10;3.73;;;10.40;99.90;;;;;;5054476;28;20206;-83
2022/04/20 05:28:39;;;;;;;4.20;3.70;;;10.30;99.90;;;;;;5053746;28;20210;-83
2022/04/20 05:31:06;;;;;;;7.27;3.93;;;10.20;99.90;;;;;;5054658;28;20198;-83
2022/04/20 05:33:34;;;;;;;8.30;4.07;;;10.30;99.90;;;;;;5054310;28;20198;-83
2022/04/20 05:36:01;;;;;;;6.93;4.13;;;10.40;99.90;;;;;;5053959;28;20487;-83
2022/04/20 05:43:57;;;;;;;3.50;3.20;;;10.50;99.90;;;;;;5053800;28;20244;-82
2022/04/20 05:46:24;;;;;;;3.60;3.30;;;10.40;99.90;;;;;;5053704;28;20684;-83
2022/04/20 05:48:51;;;;;;;6.10;3.93;;;10.50;99.90;;;;;;5053483;28;20203;-82
2022/04/20 05:51:17;;;;;;;10.00;3.57;;;10.40;99.90;;;;;;5052065;28;20205;-82
2022/04/20 05:53:44;;;;;;;4.90;3.80;;;10.30;99.90;;;;;;5052238;28;20222;-83
2022/04/20 05:56:12;;;;;;;3.80;3.50;;;10.50;99.90;;;;;;5052030;28;20552;-82
2022/04/20 05:58:39;;;;;;;5.50;3.40;;;10.50;99.90;;;;;;5049551;28;20666;-83
2022/04/20 06:01:07;;;;;;;5.70;3.60;;;10.40;99.90;;;;;;5051873;28;20232;-85
2022/04/20 06:03:34;;;;;;;5.27;3.57;;;10.50;99.90;;;;;;5053938;28;20210;-84
2022/04/20 06:06:02;;;;;;;6.30;3.70;;;10.30;99.90;;;;;;5051828;28;20191;-84
2022/04/20 06:08:34;;;;;;;4.90;4.00;;;10.40;99.90;;;;;;5052267;28;20198;-83
2022/04/20 06:11:01;;;;;;;5.43;3.77;;;10.50;99.90;;;;;;5051065;28;20618;-83
2022/04/20 06:13:29;;;;;;;7.87;3.87;;;10.50;99.90;;;;;;5053052;28;20206;-85
2022/04/20 06:15:56;;;;;;;5.63;3.70;;;10.60;99.90;;;;;;5051390;28;20563;-83
2022/04/20 06:18:24;;;;;;;4.70;3.70;;;10.70;99.90;;;;;;5052082;28;20227;-83
2022/04/20 06:20:51;;;;;;;4.10;3.70;;;10.70;99.90;;;;;;5053486;28;20293;-84
2022/04/20 06:23:20;;;;;;;8.68;3.67;;;10.60;99.90;;;;;;5051905;28;20504;-84
2022/04/20 06:25:47;;;;;;;4.07;3.43;;;10.80;99.90;;;;;;5053187;28;20205;-85
2022/04/20 06:28:14;;;;;;;4.73;3.30;;;10.60;99.90;;;;;;5052454;28;20226;-85
2022/04/20 06:30:41;;;;;;;4.70;3.90;;;10.50;99.90;;;;;;5052714;28;20210;-85
2022/04/20 06:33:07;;;;;;;7.43;3.90;;;10.70;99.90;;;;;;5052597;28;20209;-84
2022/04/20 06:35:35;;;;;;;4.10;3.70;;;10.80;99.90;;;;;;5053374;28;20198;-83
2022/04/20 06:38:02;;;;;;;5.13;3.90;;;10.70;99.90;;;;;;5053183;28;20205;-83
2022/04/20 06:40:29;;;;;;;4.03;3.73;;;10.90;99.90;;;;;;5052199;28;20229;-86
2022/04/20 06:42:56;;;;;;;5.63;3.80;;;10.90;99.90;;;;;;5050671;28;20197;-86
2022/04/20 06:45:23;;;;;;;5.97;3.47;;;10.70;99.90;;;;;;5053376;28;20290;-85
2022/04/20 06:47:50;;;;;;;4.10;3.70;;;10.80;99.90;;;;;;5053032;28;20198;-87
2022/04/20 06:50:17;;;;;;;3.77;3.40;;;10.90;99.90;;;;;;5053481;28;20203;-85
2022/04/20 06:58:35;;;;;;;9.03;4.47;;;11.20;99.90;;;;;;5055024;28;20271;-86
2022/04/20 07:01:04;;;;;;;8.33;3.77;;;11.20;99.90;;;;;;5054991;28;20316;-88
2022/04/20 07:03:31;;;;;;;7.37;3.40;;;11.00;99.90;;;;;;5053778;28;20214;-88
2022/04/20 07:05:58;;;;;;;6.80;3.70;;;10.80;99.90;;;;;;5053457;28;20206;-84
2022/04/20 07:08:26;;;;;;;4.40;4.00;;;11.10;99.90;;;;;;5053656;28;20260;-88
2022/04/20 07:10:53;;;;;;;6.90;3.90;;;11.10;99.90;;;;;;5053426;28;20206;-86
2022/04/20 07:13:20;;;;;;;6.57;4.30;;;11.20;99.90;;;;;;5053041;28;20205;-84
2022/04/20 07:15:47;;;;;;;5.00;3.60;;;11.30;99.90;;;;;;5053427;28;20210;-85
2022/04/20 07:18:14;;;;;;;10.13;3.93;;;11.30;99.90;;;;;;5053359;28;20198;-87
2022/04/20 07:20:41;;;;;;;4.83;3.43;;;11.30;99.90;;;;;;5053229;28;20296;-88
2022/04/20 07:23:09;;;;;;;5.83;3.60;;;11.40;99.90;;;;;;5052354;28;20207;-88
2022/04/20 07:25:38;;;;;;;5.27;3.83;;;11.30;99.90;;;;;;5053218;28;20281;-86
2022/04/20 07:28:05;;;;;;;7.07;4.03;;;11.50;99.90;;;;;;5054792;28;20289;-87
2022/04/20 07:30:32;;;;;;;4.87;3.60;;;11.60;99.90;;;;;;5056539;28;20206;-87
2022/04/20 07:32:59;;;;;;;6.18;4.07;;;11.50;99.90;;;;;;5056418;28;20433;-85
2022/04/20 07:35:26;;;;;;;4.57;3.87;;;11.80;99.90;;;;;;5057114;28;20210;-86
2022/04/20 07:37:52;;;;;;;6.37;3.40;;;11.60;99.90;;;;;;5054291;28;20203;-87
2022/04/20 07:40:19;;;;;;;6.67;3.27;;;11.60;99.90;;;;;;5053029;28;20230;-86
2022/04/20 07:42:47;;;;;;;7.90;4.10;;;11.80;99.90;;;;;;5052605;28;20509;-87
2022/04/20 07:45:14;;;;;;;7.63;4.27;;;11.80;99.90;;;;;;5052528;28;20199;-86
2022/04/20 07:47:41;;;;;;;6.23;4.40;;;12.00;99.90;;;;;;5052798;28;20226;-86
2022/04/20 07:50:21;;;;;;;6.70;4.27;;;12.10;99.90;;;;;;5052497;28;20191;-86
2022/04/20 07:52:49;;;;;;;5.73;4.23;;;12.40;99.90;;;;;;5052264;28;20223;-85
2022/04/20 07:55:18;;;;;;;8.13;4.27;;;12.10;99.90;;;;;;5052494;28;20260;-86
2022/04/20 07:57:46;;;;;;;5.07;3.73;;;12.00;99.70;;;;;;5053864;28;20215;-86
2022/04/20 08:00:15;;;;;;;5.17;3.97;;;11.90;99.90;;;;;;5053845;28;20234;-85
2022/04/20 08:02:42;;;;;;;4.30;3.90;;;12.10;99.90;;;;;;5052536;28;20207;-85
2022/04/20 08:05:10;;;;;;;5.63;4.13;;;12.20;99.90;;;;;;5051378;28;20214;-85
2022/04/20 08:07:37;;;;;;;5.37;3.57;;;12.30;99.60;;;;;;5050266;28;20285;-86
2022/04/20 08:10:06;;;;;;;4.90;3.87;;;12.20;99.90;;;;;;5051665;28;20210;-85
2022/04/20 08:12:37;;;;;;;5.37;4.20;;;12.10;99.70;;;;;;5051948;28;20646;-87
2022/04/20 08:15:06;;;;;;;7.67;3.90;;;12.30;99.90;;;;;;5051931;28;20654;-87
2022/04/20 08:17:33;;;;;;;4.07;3.73;;;12.50;99.50;;;;;;5055542;28;20202;-88
2022/04/20 08:20:00;;;;;;;5.43;3.47;;;12.60;99.40;;;;;;5056261;28;20234;-88
2022/04/20 08:22:28;;;;;;;6.13;4.03;;;12.70;98.50;;;;;;5056805;28;20199;-86
2022/04/20 08:24:55;;;;;;;7.23;4.07;;;12.80;99.00;;;;;;5056323;28;20200;-86
2022/04/20 08:27:22;;;;;;;6.03;4.30;;;13.10;98.60;;;;;;5057340;28;20210;-86
2022/04/20 08:29:51;;;;;;;5.80;3.53;;;13.20;98.30;;;;;;5057453;28;20208;-85
2022/04/20 08:32:19;;;;;;;3.97;3.37;;;13.30;97.90;;;;;;5057016;28;20208;-86
2022/04/20 08:34:50;;;;;;;4.93;3.70;;;13.50;97.60;;;;;;5057185;28;20215;-85
2022/04/20 08:37:17;;;;;;;4.00;3.63;;;13.30;98.10;;;;;;5057212;28;20207;-87
2022/04/20 08:39:44;;;;;;;9.40;3.87;;;13.60;97.60;;;;;;5057423;28;20235;-87
2022/04/20 08:42:12;;;;;;;6.27;3.57;;;13.60;97.80;;;;;;5055845;28;20211;-88
2022/04/20 08:44:44;;;;;;;6.63;3.70;;;13.50;97.50;;;;;;5055334;28;20919;-88
2022/04/20 08:47:16;;;;;;;4.67;3.60;;;13.80;96.90;;;;;;5055725;28;20652;-87
2022/04/20 08:49:46;;;;;;;3.60;3.37;;;13.90;97.20;;;;;;5055194;28;20206;-87
2022/04/20 08:54:57;;;;;;;5.20;3.70;;;14.20;96.80;;;;;;5055212;28;20722;-86
2022/04/20 08:57:25;;;;;;;6.63;3.27;;;14.30;96.20;;;;;;5057937;28;20206;-87
2022/04/20 08:59:54;;;;;;;7.83;3.80;;;14.20;96.70;;;;;;5055803;28;20633;-86
2022/04/20 09:02:23;;;;;;;4.87;3.90;;;14.20;96.00;;;;;;5057453;28;20259;-87
2022/04/20 09:04:51;;;;;;;8.03;3.47;;;14.20;95.50;;;;;;5056647;28;20281;-86
2022/04/20 09:07:19;;;;;;;5.80;4.07;;;14.20;95.80;;;;;;5056504;28;20236;-86
2022/04/20 09:09:46;;;;;;;6.40;4.10;;;14.30;96.20;;;;;;5057471;28;20269;-85
2022/04/20 09:12:17;;;;;;;5.77;4.20;;;14.40;95.70;;;;;;5057838;28;20237;-85
2022/04/20 09:14:48;;;;;;;4.17;3.87;;;14.40;95.30;;;;;;5057267;28;20291;-85
2022/04/20 09:17:17;;;;;;;5.73;4.10;;;14.50;95.80;;;;;;5057521;28;20688;-86
2022/04/20 09:19:45;;;;;;;3.93;3.63;;;14.60;95.40;;;;;;5056366;28;20684;-87
2022/04/20 09:22:21;;;;;;;5.27;4.07;;;14.80;95.10;;;;;;5057742;28;20209;-87
2022/04/20 09:25:06;;;;;;;4.57;3.77;;;14.90;94.60;;;;;;5057492;28;20263;-84
2022/04/20 09:27:34;;;;;;;4.23;3.87;;;15.10;94.40;;;;;;5036741;28;20297;-83
2022/04/20 09:30:01;;;;;;;7.40;4.03;;;15.20;94.20;;;;;;5038252;28;20215;-87
2022/04/20 09:32:36;;;;;;;4.53;3.88;;;15.10;93.30;;;;;;5037553;28;20084;-84
2022/04/20 09:35:05;;;;;;;7.70;4.63;;;14.90;93.60;;;;;;5037741;28;20199;-88
2022/04/20 09:37:34;;;;;;;6.23;4.03;;;14.80;94.10;;;;;;5037864;28;20559;-85
2022/04/20 09:40:04;;;;;;;3.73;3.27;;;15.00;93.60;;;;;;5053833;28;20692;-87
2022/04/20 09:42:31;;;;;;;5.83;4.10;;;15.20;93.20;;;;;;5037795;28;20203;-89
2022/04/20 09:45:00;;;;;;;7.67;4.27;;;15.10;93.00;;;;;;5037989;28;20285;-87
2022/04/20 09:50:16;;;;;;;4.03;3.73;;;15.10;93.00;;;;;;5039169;28;20270;-89
2022/04/20 09:52:47;;;;;;;3.93;3.63;;;15.50;91.80;;;;;;5040040;28;20209;-87
2022/04/20 09:55:15;;;;;;;6.93;4.10;;;15.70;92.00;;;;;;5043993;28;20650;-88
2022/04/20 09:57:42;;;;;;;4.30;3.90;;;15.90;91.50;;;;;;5066789;28;20568;-87
2022/04/20 10:00:10;;;;;;;7.23;3.57;;;15.80;91.60;;;;;;5062815;28;20242;-87
2022/04/20 10:02:38;;;;;;;9.50;3.50;;;15.90;90.70;;;;;;5061603;28;20199;-88
2022/04/20 10:05:06;;;;;;;5.50;3.13;;;16.00;90.00;;;;;;5063988;28;20203;-87
2022/04/20 10:07:34;;;;;;;5.63;3.40;;;15.80;88.40;;;;;;5063594;28;20255;-89
2022/04/20 10:10:04;;;;;;;3.30;2.93;;;16.00;88.70;;;;;;5062663;28;20199;-87
2022/04/20 10:12:32;;;;;;;3.97;3.47;;;16.10;87.80;;;;;;5062654;28;20195;-87
2022/04/20 10:17:50;;;;;;;3.07;2.87;;;16.20;86.50;;;;;;5058102;28;20275;-86
2022/04/20 10:20:17;;;;;;;3.33;2.53;;;16.10;84.40;;;;;;5065159;28;20590;-87
2022/04/20 10:22:46;;;;;;;6.28;3.03;;;16.20;83.70;;;;;;5063376;28;20491;-86
2022/04/20 10:25:16;;;;;;;3.20;2.90;;;16.40;84.00;;;;;;5063424;28;20204;-85
2022/04/20 10:28:04;;;;;;;3.30;2.80;;;16.30;84.20;;;;;;5060250;28;20206;-87
2022/04/20 10:30:39;;;;;;;5.67;2.80;;;16.40;85.50;;;;;;5055736;28;20261;-85
2022/04/20 10:33:09;;;;;;;3.07;2.87;;;16.70;85.90;;;;;;5059099;28;20205;-85
2022/04/20 10:35:54;;;;;;;6.80;3.20;;;16.90;84.10;;;;;;5061573;28;20253;-86
2022/04/20 10:38:21;;;;;;;5.00;2.63;;;16.60;83.40;;;;;;5060151;28;20215;-87
2022/04/20 10:41:11;;;;;;;5.60;3.53;;;16.50;83.40;;;;;;5056140;28;20726;-86
2022/04/20 10:43:39;;;;;;;4.03;2.70;;;16.60;83.60;;;;;;5038003;28;20690;-85
2022/04/20 10:46:15;;;;;;;4.38;3.38;;;16.60;84.80;;;;;;5044315;28;20439;-89
2022/04/20 10:48:44;;;;;;;4.40;3.53;;;16.90;85.50;;;;;;5040498;28;20202;-83
2022/04/20 10:51:15;;;;;;;5.17;3.30;;;16.90;85.10;;;;;;5043628;28;20197;-87
2022/04/20 10:53:43;;;;;;;4.53;3.40;;;16.70;84.20;;;;;;5045091;28;20284;-83
2022/04/20 10:56:12;;;;;;;4.30;3.40;;;16.90;85.20;;;;;;5035981;28;20276;-84
2022/04/20 10:58:50;;;;;;;3.70;3.27;;;16.80;84.40;;;;;;5033595;28;20679;-85
2022/04/20 11:01:17;;;;;;;9.13;3.70;;;16.70;84.70;;;;;;5037885;28;20240;-82
2022/04/20 11:04:10;;;;;;;3.97;3.67;;;16.80;86.00;;;;;;5038694;28;20240;-81
2022/04/20 11:07:16;;;;;;;5.53;3.50;;;16.90;86.20;;;;;;5025453;28;20212;-82
2022/04/20 11:10:02;;;;;;;4.57;3.63;;;17.00;86.10;;;;;;5041401;28;20221;-81
2022/04/20 11:21:17;;;;;;;3.93;3.30;;;17.10;82.50;;;;;;5063478;28;20240;-87
2022/04/20 11:23:58;;;;;;;4.10;3.80;;;16.90;83.20;;;;;;5060368;28;20221;-88
2022/04/20 11:26:28;;;;;;;3.60;3.30;;;17.20;83.50;;;;;;5065204;28;20219;-89
2022/04/20 11:28:59;;;;;;;7.63;4.10;;;17.40;82.00;;;;;;5058946;28;20429;-83
2022/04/20 11:31:26;;;;;;;4.80;3.57;;;17.20;82.50;;;;;;5053126;28;20237;-83
2022/04/20 11:33:54;;;;;;;3.93;3.57;;;17.30;81.80;;;;;;5052679;28;20319;-83
2022/04/20 11:36:22;;;;;;;6.30;3.40;;;17.40;82.00;;;;;;5052472;28;20209;-83
2022/04/20 11:38:49;;;;;;;4.20;2.83;;;17.50;82.20;;;;;;5052033;28;20267;-82
2022/04/20 11:41:17;;;;;;;6.73;2.87;;;17.40;83.10;;;;;;5052109;28;20233;-82
2022/04/20 11:43:44;;;;;;;4.63;3.60;;;17.40;82.50;;;;;;5052803;28;20229;-82
2022/04/20 11:46:14;;;;;;;5.57;3.23;;;17.40;83.10;;;;;;5053428;28;20206;-83
2022/04/20 11:48:54;;;;;;;6.87;2.73;;;17.20;81.60;;;;;;5053394;28;20224;-83
2022/04/20 11:51:23;;;;;;;6.55;3.00;;;17.30;82.70;;;;;;5054053;28;20429;-82
2022/04/20 11:53:50;;;;;;;3.33;3.03;;;17.60;83.10;;;;;;5056207;28;20217;-82
2022/04/20 11:56:17;;;;;;;4.33;2.93;;;17.60;81.30;;;;;;5056700;28;20733;-81
2022/04/20 11:58:51;;;;;;;5.17;2.60;;;17.70;81.10;;;;;;5057919;28;20202;-83
2022/04/20 12:01:25;;;;;;;6.73;2.87;;;17.60;81.20;;;;;;5057086;28;20262;-83
2022/04/20 12:03:53;;;;;;;2.80;2.60;;;17.70;80.70;;;;;;5057359;28;20202;-82
2022/04/20 12:06:24;;;;;;;4.03;2.47;;;17.70;81.70;;;;;;5058743;28;20249;-82
2022/04/20 12:08:54;;;;;;;2.77;2.47;;;17.70;81.30;;;;;;5057845;28;20244;-83
2022/04/20 12:11:21;;;;;;;5.83;2.57;;;17.80;81.40;;;;;;5058017;28;20677;-82
2022/04/20 12:13:55;;;;;;;5.00;3.23;;;17.80;80.10;;;;;;5058891;28;20213;-84
2022/04/20 12:16:24;;;;;;;7.63;2.87;;;17.80;80.30;;;;;;5057661;28;20212;-84
2022/04/20 12:18:52;;;;;;;3.80;3.50;;;17.80;80.20;;;;;;5057355;28;20252;-82
2022/04/20 12:21:42;;;;;;;4.43;3.20;;;17.80;80.00;;;;;;5058099;28;20262;-82
2022/04/20 12:24:12;;;;;;;3.40;3.10;;;17.70;80.50;;;;;;5057394;28;20682;-82
2022/04/20 12:26:43;;;;;;;4.23;3.07;;;17.70;81.50;;;;;;5057220;28;20684;-83
2022/04/20 12:29:11;;;;;;;5.40;3.27;;;17.90;80.40;;;;;;5056273;28;20294;-81
2022/04/20 12:31:44;;;;;;;6.53;2.83;;;18.00;79.80;;;;;;5057908;28;20684;-81
2022/04/20 12:34:15;;;;;;;5.13;2.93;;;18.10;80.40;;;;;;5058039;28;20223;-83
2022/04/20 12:36:59;;;;;;;4.88;3.20;;;18.40;79.60;;;;;;5056366;28;20430;-85
2022/04/20 12:39:31;;;;;;;4.60;2.83;;;18.70;79.50;;;;;;5056837;28;20219;-83
2022/04/20 12:42:02;;;;;;;6.73;3.50;;;18.50;79.00;;;;;;5056580;28;20276;-83
2022/04/20 12:44:51;;;;;;;6.70;3.93;;;18.40;78.40;;;;;;5056660;28;20204;-83
2022/04/20 12:47:39;;;;;;;13.47;11.93;;;18.40;78.70;;;;;;5056966;28;20199;-83
2022/04/20 12:50:22;;;;;;;5.73;4.13;;;18.20;78.60;;;;;;5057150;28;20257;-83
2022/04/20 12:52:54;;;;;;;3.63;3.10;;;18.20;79.50;;;;;;5056146;28;20214;-81
2022/04/20 12:55:21;;;;;;;3.87;3.50;;;18.40;80.10;;;;;;5055748;28;20669;-82
2022/04/20 13:03:35;;;;;;;7.83;3.27;;;18.20;79.60;;;;;;5055187;28;20292;-84
2022/04/20 13:06:03;;;;;;;7.93;4.10;;;18.20;80.00;;;;;;5055206;28;20773;-82
2022/04/20 13:08:30;;;;;;;5.87;3.30;;;18.40;80.20;;;;;;5055729;28;20214;-82
2022/04/20 13:10:58;;;;;;;4.37;3.50;;;18.50;80.10;;;;;;5055892;28;20206;-84
2022/04/20 13:13:25;;;;;;;4.33;3.67;;;18.40;81.00;;;;;;5054984;28;20203;-83
2022/04/20 13:15:52;;;;;;;4.40;3.63;;;18.50;80.30;;;;;;5054938;28;20207;-82
2022/04/20 13:18:18;;;;;;;4.23;3.37;;;18.40;79.60;;;;;;5055246;28;20558;-83
2022/04/20 13:20:48;;;;;;;5.60;4.20;;;18.50;80.60;;;;;;5054120;28;20228;-82
2022/04/20 13:23:15;;;;;;;4.80;3.90;;;18.70;80.80;;;;;;5054608;28;20659;-82
2022/04/20 13:28:34;;;;;;;7.10;4.47;;;18.90;80.50;;;;;;5017764;28;20218;-83
2022/04/20 13:31:01;;;;;;;6.10;3.73;;;18.70;79.60;;;;;;5053668;28;20218;-84
2022/04/20 13:33:28;;;;;;;5.83;3.50;;;18.80;80.40;;;;;;5055018;28;20668;-82
2022/04/20 13:35:56;;;;;;;6.10;3.60;;;18.90;81.20;;;;;;5054796;28;20208;-83